sensor_id;sensor_type;location;lat;lon;timestamp;P1;durP1;ratioP1;P2;durP2;ratioP2
33138;SDS011;19501;50.948;5.316;2023-12-29T00:01:55;8.95;;;3.00;;
33138;SDS011;19501;50.948;5.316;2023-12-29T00:04:21;14.13;;;3.15;;
33138;SDS011;19501;50.948;5.316;2023-12-29T00:06:47;13.32;;;2.90;;
33138;SDS011;19501;50.948;5.316;2023-12-29T00:09:14;9.00;;;2.95;;
33138;SDS011;19501;50.948;5.316;2023-12-29T00:11:40;17.10;;;3.22;;
33138;SDS011;19501;50.948;5.316;2023-12-29T00:14:05;7.43;;;2.53;;
33138;SDS011;19501;50.948;5.316;2023-12-29T00:16:31;13.55;;;3.17;;
33138;SDS011;19501;50.948;5.316;2023-12-29T00:18:56;14.23;;;2.65;;
33138;SDS011;19501;50.948;5.316;2023-12-29T00:21:22;16.00;;;2.88;;
33138;SDS011;19501;50.948;5.316;2023-12-29T00:23:48;14.60;;;3.22;;
33138;SDS011;19501;50.948;5.316;2023-12-29T00:26:17;14.43;;;3.38;;
33138;SDS011;19501;50.948;5.316;2023-12-29T00:28:43;10.50;;;2.97;;
33138;SDS011;19501;50.948;5.316;2023-12-29T00:31:09;16.27;;;3.50;;
33138;SDS011;19501;50.948;5.316;2023-12-29T00:33:40;11.25;;;2.83;;
33138;SDS011;19501;50.948;5.316;2023-12-29T00:36:07;11.93;;;3.17;;
33138;SDS011;19501;50.948;5.316;2023-12-29T00:38:32;19.90;;;3.50;;
33138;SDS011;19501;50.948;5.316;2023-12-29T00:40:59;16.25;;;3.42;;
33138;SDS011;19501;50.948;5.316;2023-12-29T00:43:24;11.82;;;3.03;;
33138;SDS011;19501;50.948;5.316;2023-12-29T00:45:50;8.82;;;2.80;;
33138;SDS011;19501;50.948;5.316;2023-12-29T00:48:16;16.60;;;3.65;;
33138;SDS011;19501;50.948;5.316;2023-12-29T00:50:42;11.00;;;2.90;;
33138;SDS011;19501;50.948;5.316;2023-12-29T00:53:07;19.92;;;3.60;;
33138;SDS011;19501;50.948;5.316;2023-12-29T00:55:33;10.48;;;2.97;;
33138;SDS011;19501;50.948;5.316;2023-12-29T00:57:58;15.75;;;3.20;;
33138;SDS011;19501;50.948;5.316;2023-12-29T01:00:24;22.67;;;3.70;;
33138;SDS011;19501;50.948;5.316;2023-12-29T01:02:50;14.07;;;3.28;;
33138;SDS011;19501;50.948;5.316;2023-12-29T01:05:16;20.65;;;3.88;;
33138;SDS011;19501;50.948;5.316;2023-12-29T01:07:45;17.42;;;3.20;;
33138;SDS011;19501;50.948;5.316;2023-12-29T01:10:11;13.10;;;3.22;;
33138;SDS011;19501;50.948;5.316;2023-12-29T01:12:37;14.75;;;3.33;;
33138;SDS011;19501;50.948;5.316;2023-12-29T01:15:02;8.68;;;2.50;;
33138;SDS011;19501;50.948;5.316;2023-12-29T01:17:31;11.98;;;3.05;;
33138;SDS011;19501;50.948;5.316;2023-12-29T01:19:56;16.55;;;3.95;;
33138;SDS011;19501;50.948;5.316;2023-12-29T01:22:22;13.85;;;3.90;;
33138;SDS011;19501;50.948;5.316;2023-12-29T01:24:51;16.50;;;3.90;;
33138;SDS011;19501;50.948;5.316;2023-12-29T01:27:16;14.27;;;3.65;;
33138;SDS011;19501;50.948;5.316;2023-12-29T01:29:42;13.63;;;3.42;;
33138;SDS011;19501;50.948;5.316;2023-12-29T01:32:07;19.13;;;4.05;;
33138;SDS011;19501;50.948;5.316;2023-12-29T01:34:33;14.82;;;3.22;;
33138;SDS011;19501;50.948;5.316;2023-12-29T01:36:59;13.23;;;3.33;;
33138;SDS011;19501;50.948;5.316;2023-12-29T01:39:27;11.07;;;3.25;;
33138;SDS011;19501;50.948;5.316;2023-12-29T01:41:55;24.75;;;3.60;;
33138;SDS011;19501;50.948;5.316;2023-12-29T01:44:21;19.30;;;3.65;;
33138;SDS011;19501;50.948;5.316;2023-12-29T01:46:51;22.77;;;4.13;;
33138;SDS011;19501;50.948;5.316;2023-12-29T01:49:20;12.47;;;3.47;;
33138;SDS011;19501;50.948;5.316;2023-12-29T01:51:49;9.80;;;2.95;;
33138;SDS011;19501;50.948;5.316;2023-12-29T01:54:18;13.05;;;3.20;;
33138;SDS011;19501;50.948;5.316;2023-12-29T01:56:45;17.23;;;4.18;;
33138;SDS011;19501;50.948;5.316;2023-12-29T01:59:11;21.08;;;3.65;;
33138;SDS011;19501;50.948;5.316;2023-12-29T02:01:37;11.68;;;3.10;;
33138;SDS011;19501;50.948;5.316;2023-12-29T02:04:10;17.45;;;3.30;;
33138;SDS011;19501;50.948;5.316;2023-12-29T02:06:38;18.08;;;4.10;;
33138;SDS011;19501;50.948;5.316;2023-12-29T02:09:04;11.20;;;3.35;;
33138;SDS011;19501;50.948;5.316;2023-12-29T02:11:31;10.55;;;2.97;;
33138;SDS011;19501;50.948;5.316;2023-12-29T02:13:57;12.50;;;3.45;;
33138;SDS011;19501;50.948;5.316;2023-12-29T02:19:53;17.05;;;3.88;;
33138;SDS011;19501;50.948;5.316;2023-12-29T02:22:09;15.77;;;3.67;;
33138;SDS011;19501;50.948;5.316;2023-12-29T02:24:35;13.93;;;3.40;;
33138;SDS011;19501;50.948;5.316;2023-12-29T02:29:39;11.65;;;3.35;;
33138;SDS011;19501;50.948;5.316;2023-12-29T02:32:09;12.40;;;2.90;;
33138;SDS011;19501;50.948;5.316;2023-12-29T02:34:38;14.88;;;3.70;;
33138;SDS011;19501;50.948;5.316;2023-12-29T02:37:06;16.30;;;3.72;;
33138;SDS011;19501;50.948;5.316;2023-12-29T02:39:34;15.05;;;4.30;;
33138;SDS011;19501;50.948;5.316;2023-12-29T02:42:00;17.27;;;3.47;;
33138;SDS011;19501;50.948;5.316;2023-12-29T02:44:26;15.77;;;3.75;;
33138;SDS011;19501;50.948;5.316;2023-12-29T02:46:52;12.77;;;3.30;;
33138;SDS011;19501;50.948;5.316;2023-12-29T02:49:17;20.48;;;3.78;;
33138;SDS011;19501;50.948;5.316;2023-12-29T02:51:43;15.23;;;3.40;;
33138;SDS011;19501;50.948;5.316;2023-12-29T02:54:11;14.60;;;2.92;;
33138;SDS011;19501;50.948;5.316;2023-12-29T02:56:39;15.93;;;3.53;;
33138;SDS011;19501;50.948;5.316;2023-12-29T02:59:04;11.10;;;2.88;;
33138;SDS011;19501;50.948;5.316;2023-12-29T03:01:30;15.55;;;3.10;;
33138;SDS011;19501;50.948;5.316;2023-12-29T03:03:56;18.08;;;3.22;;
33138;SDS011;19501;50.948;5.316;2023-12-29T03:06:21;19.75;;;3.85;;
33138;SDS011;19501;50.948;5.316;2023-12-29T03:08:47;15.95;;;3.33;;
33138;SDS011;19501;50.948;5.316;2023-12-29T03:11:12;14.35;;;3.30;;
33138;SDS011;19501;50.948;5.316;2023-12-29T03:13:39;20.58;;;3.78;;
33138;SDS011;19501;50.948;5.316;2023-12-29T03:16:04;15.13;;;3.42;;
33138;SDS011;19501;50.948;5.316;2023-12-29T03:18:30;21.67;;;3.58;;
33138;SDS011;19501;50.948;5.316;2023-12-29T03:20:56;15.68;;;3.33;;
33138;SDS011;19501;50.948;5.316;2023-12-29T03:23:21;12.13;;;3.08;;
33138;SDS011;19501;50.948;5.316;2023-12-29T03:25:47;18.33;;;4.47;;
33138;SDS011;19501;50.948;5.316;2023-12-29T03:28:15;19.95;;;3.50;;
33138;SDS011;19501;50.948;5.316;2023-12-29T03:30:40;18.77;;;2.80;;
33138;SDS011;19501;50.948;5.316;2023-12-29T03:33:06;11.75;;;2.85;;
33138;SDS011;19501;50.948;5.316;2023-12-29T03:35:32;13.68;;;2.97;;
33138;SDS011;19501;50.948;5.316;2023-12-29T03:37:57;12.00;;;2.92;;
33138;SDS011;19501;50.948;5.316;2023-12-29T03:40:23;8.60;;;2.47;;
33138;SDS011;19501;50.948;5.316;2023-12-29T03:42:48;14.35;;;2.85;;
33138;SDS011;19501;50.948;5.316;2023-12-29T03:45:14;10.50;;;2.60;;
33138;SDS011;19501;50.948;5.316;2023-12-29T03:47:39;11.77;;;2.58;;
33138;SDS011;19501;50.948;5.316;2023-12-29T03:50:05;8.88;;;2.60;;
33138;SDS011;19501;50.948;5.316;2023-12-29T03:52:33;13.45;;;3.45;;
33138;SDS011;19501;50.948;5.316;2023-12-29T03:54:59;9.20;;;2.75;;
33138;SDS011;19501;50.948;5.316;2023-12-29T03:57:25;14.82;;;2.65;;
33138;SDS011;19501;50.948;5.316;2023-12-29T03:59:50;11.95;;;2.95;;
33138;SDS011;19501;50.948;5.316;2023-12-29T04:02:16;14.95;;;3.55;;
33138;SDS011;19501;50.948;5.316;2023-12-29T04:04:42;9.80;;;2.55;;
33138;SDS011;19501;50.948;5.316;2023-12-29T04:07:08;19.20;;;3.53;;
33138;SDS011;19501;50.948;5.316;2023-12-29T04:09:34;18.13;;;3.40;;
33138;SDS011;19501;50.948;5.316;2023-12-29T04:11:59;13.32;;;3.10;;
33138;SDS011;19501;50.948;5.316;2023-12-29T04:14:25;11.88;;;3.38;;
33138;SDS011;19501;50.948;5.316;2023-12-29T04:16:50;14.02;;;2.70;;
33138;SDS011;19501;50.948;5.316;2023-12-29T04:19:21;17.10;;;3.03;;
33138;SDS011;19501;50.948;5.316;2023-12-29T04:21:46;13.00;;;3.13;;
33138;SDS011;19501;50.948;5.316;2023-12-29T04:24:15;14.95;;;3.20;;
33138;SDS011;19501;50.948;5.316;2023-12-29T04:26:43;17.40;;;3.13;;
33138;SDS011;19501;50.948;5.316;2023-12-29T04:29:08;10.90;;;2.55;;
33138;SDS011;19501;50.948;5.316;2023-12-29T04:31:36;19.70;;;3.30;;
33138;SDS011;19501;50.948;5.316;2023-12-29T04:34:04;23.70;;;3.25;;
33138;SDS011;19501;50.948;5.316;2023-12-29T04:36:29;14.52;;;2.92;;
33138;SDS011;19501;50.948;5.316;2023-12-29T04:38:55;12.30;;;2.97;;
33138;SDS011;19501;50.948;5.316;2023-12-29T04:41:21;14.52;;;3.08;;
33138;SDS011;19501;50.948;5.316;2023-12-29T04:43:46;16.08;;;2.90;;
33138;SDS011;19501;50.948;5.316;2023-12-29T04:46:12;12.00;;;2.92;;
33138;SDS011;19501;50.948;5.316;2023-12-29T04:48:37;12.98;;;3.50;;
33138;SDS011;19501;50.948;5.316;2023-12-29T04:51:03;14.15;;;2.78;;
33138;SDS011;19501;50.948;5.316;2023-12-29T04:53:29;12.57;;;2.88;;
33138;SDS011;19501;50.948;5.316;2023-12-29T04:55:54;14.90;;;2.80;;
33138;SDS011;19501;50.948;5.316;2023-12-29T04:58:20;17.25;;;2.97;;
33138;SDS011;19501;50.948;5.316;2023-12-29T05:00:46;19.50;;;3.05;;
33138;SDS011;19501;50.948;5.316;2023-12-29T05:03:11;10.93;;;2.55;;
33138;SDS011;19501;50.948;5.316;2023-12-29T05:05:37;13.50;;;3.10;;
33138;SDS011;19501;50.948;5.316;2023-12-29T05:08:03;18.15;;;4.57;;
33138;SDS011;19501;50.948;5.316;2023-12-29T05:10:29;15.10;;;2.80;;
33138;SDS011;19501;50.948;5.316;2023-12-29T05:12:55;13.95;;;2.97;;
33138;SDS011;19501;50.948;5.316;2023-12-29T05:15:20;12.32;;;2.80;;
33138;SDS011;19501;50.948;5.316;2023-12-29T05:17:46;15.82;;;3.15;;
33138;SDS011;19501;50.948;5.316;2023-12-29T05:20:12;10.35;;;2.42;;
33138;SDS011;19501;50.948;5.316;2023-12-29T05:22:38;19.27;;;3.45;;
33138;SDS011;19501;50.948;5.316;2023-12-29T05:25:03;13.27;;;2.80;;
33138;SDS011;19501;50.948;5.316;2023-12-29T05:27:30;15.13;;;3.05;;
33138;SDS011;19501;50.948;5.316;2023-12-29T05:29:56;19.25;;;3.08;;
33138;SDS011;19501;50.948;5.316;2023-12-29T05:32:22;8.20;;;2.63;;
33138;SDS011;19501;50.948;5.316;2023-12-29T05:34:47;11.93;;;2.78;;
33138;SDS011;19501;50.948;5.316;2023-12-29T05:37:13;12.32;;;3.30;;
33138;SDS011;19501;50.948;5.316;2023-12-29T05:39:41;19.15;;;3.20;;
33138;SDS011;19501;50.948;5.316;2023-12-29T05:42:07;14.85;;;2.70;;
33138;SDS011;19501;50.948;5.316;2023-12-29T05:44:36;17.50;;;3.22;;
33138;SDS011;19501;50.948;5.316;2023-12-29T05:47:02;13.95;;;3.53;;
33138;SDS011;19501;50.948;5.316;2023-12-29T05:49:29;16.05;;;3.78;;
33138;SDS011;19501;50.948;5.316;2023-12-29T05:51:55;17.30;;;3.10;;
33138;SDS011;19501;50.948;5.316;2023-12-29T05:54:20;19.13;;;2.72;;
33138;SDS011;19501;50.948;5.316;2023-12-29T05:56:46;20.08;;;3.25;;
33138;SDS011;19501;50.948;5.316;2023-12-29T05:59:12;19.10;;;3.67;;
33138;SDS011;19501;50.948;5.316;2023-12-29T06:01:37;9.30;;;2.47;;
33138;SDS011;19501;50.948;5.316;2023-12-29T06:04:03;14.25;;;3.05;;
33138;SDS011;19501;50.948;5.316;2023-12-29T06:06:29;16.95;;;2.95;;
33138;SDS011;19501;50.948;5.316;2023-12-29T06:08:54;13.70;;;2.72;;
33138;SDS011;19501;50.948;5.316;2023-12-29T06:11:20;13.30;;;2.65;;
33138;SDS011;19501;50.948;5.316;2023-12-29T06:13:46;14.73;;;2.47;;
33138;SDS011;19501;50.948;5.316;2023-12-29T06:16:18;20.33;;;3.50;;
33138;SDS011;19501;50.948;5.316;2023-12-29T06:18:44;21.17;;;3.42;;
33138;SDS011;19501;50.948;5.316;2023-12-29T06:21:10;12.95;;;3.05;;
33138;SDS011;19501;50.948;5.316;2023-12-29T06:23:36;19.77;;;3.25;;
33138;SDS011;19501;50.948;5.316;2023-12-29T06:26:01;12.35;;;3.00;;
33138;SDS011;19501;50.948;5.316;2023-12-29T06:28:27;12.70;;;2.47;;
33138;SDS011;19501;50.948;5.316;2023-12-29T06:30:53;15.23;;;3.28;;
33138;SDS011;19501;50.948;5.316;2023-12-29T06:33:19;21.33;;;2.90;;
33138;SDS011;19501;50.948;5.316;2023-12-29T06:35:47;19.88;;;4.40;;
33138;SDS011;19501;50.948;5.316;2023-12-29T06:38:13;8.13;;;2.17;;
33138;SDS011;19501;50.948;5.316;2023-12-29T06:40:39;14.63;;;2.88;;
33138;SDS011;19501;50.948;5.316;2023-12-29T06:43:07;20.20;;;3.13;;
33138;SDS011;19501;50.948;5.316;2023-12-29T06:45:35;13.73;;;2.25;;
33138;SDS011;19501;50.948;5.316;2023-12-29T06:48:00;22.58;;;3.80;;
33138;SDS011;19501;50.948;5.316;2023-12-29T06:50:27;18.05;;;3.15;;
33138;SDS011;19501;50.948;5.316;2023-12-29T06:52:52;12.55;;;2.88;;
33138;SDS011;19501;50.948;5.316;2023-12-29T06:55:18;17.60;;;3.83;;
33138;SDS011;19501;50.948;5.316;2023-12-29T06:57:43;13.75;;;3.60;;
33138;SDS011;19501;50.948;5.316;2023-12-29T07:00:09;25.52;;;3.67;;
33138;SDS011;19501;50.948;5.316;2023-12-29T07:02:37;1.55;;;0.75;;
33138;SDS011;19501;50.948;5.316;2023-12-29T07:05:04;9.55;;;3.13;;
33138;SDS011;19501;50.948;5.316;2023-12-29T07:07:31;0.40;;;0.40;;
33138;SDS011;19501;50.948;5.316;2023-12-29T07:09:56;0.40;;;0.40;;
33138;SDS011;19501;50.948;5.316;2023-12-29T07:12:22;0.40;;;0.40;;
33138;SDS011;19501;50.948;5.316;2023-12-29T07:14:48;0.82;;;0.82;;
33138;SDS011;19501;50.948;5.316;2023-12-29T07:17:16;0.40;;;0.40;;
33138;SDS011;19501;50.948;5.316;2023-12-29T07:19:41;0.40;;;0.40;;
33138;SDS011;19501;50.948;5.316;2023-12-29T07:22:07;0.40;;;0.40;;
33138;SDS011;19501;50.948;5.316;2023-12-29T07:24:33;0.40;;;0.40;;
33138;SDS011;19501;50.948;5.316;2023-12-29T07:27:00;0.40;;;0.40;;
33138;SDS011;19501;50.948;5.316;2023-12-29T07:29:26;0.40;;;0.40;;
33138;SDS011;19501;50.948;5.316;2023-12-29T07:31:52;0.30;;;0.30;;
33138;SDS011;19501;50.948;5.316;2023-12-29T07:34:18;0.40;;;0.40;;
33138;SDS011;19501;50.948;5.316;2023-12-29T07:36:44;0.40;;;0.40;;
33138;SDS011;19501;50.948;5.316;2023-12-29T07:39:10;0.40;;;0.40;;
33138;SDS011;19501;50.948;5.316;2023-12-29T07:41:42;0.30;;;0.30;;
33138;SDS011;19501;50.948;5.316;2023-12-29T07:44:10;0.50;;;0.50;;
33138;SDS011;19501;50.948;5.316;2023-12-29T07:46:37;0.30;;;0.30;;
33138;SDS011;19501;50.948;5.316;2023-12-29T07:49:04;0.38;;;0.38;;
33138;SDS011;19501;50.948;5.316;2023-12-29T07:51:29;1.75;;;1.15;;
33138;SDS011;19501;50.948;5.316;2023-12-29T07:53:55;0.40;;;0.40;;
33138;SDS011;19501;50.948;5.316;2023-12-29T07:56:23;0.30;;;0.30;;
33138;SDS011;19501;50.948;5.316;2023-12-29T07:58:51;0.35;;;0.35;;
33138;SDS011;19501;50.948;5.316;2023-12-29T08:01:17;0.40;;;0.40;;
33138;SDS011;19501;50.948;5.316;2023-12-29T08:03:43;0.40;;;0.40;;
33138;SDS011;19501;50.948;5.316;2023-12-29T08:06:09;0.40;;;0.40;;
33138;SDS011;19501;50.948;5.316;2023-12-29T08:08:34;0.40;;;0.40;;
33138;SDS011;19501;50.948;5.316;2023-12-29T08:11:00;0.40;;;0.40;;
33138;SDS011;19501;50.948;5.316;2023-12-29T08:13:25;0.40;;;0.40;;
33138;SDS011;19501;50.948;5.316;2023-12-29T08:15:51;0.40;;;0.40;;
33138;SDS011;19501;50.948;5.316;2023-12-29T08:18:17;0.40;;;0.40;;
33138;SDS011;19501;50.948;5.316;2023-12-29T08:20:42;0.40;;;0.40;;
33138;SDS011;19501;50.948;5.316;2023-12-29T08:23:08;0.40;;;0.40;;
33138;SDS011;19501;50.948;5.316;2023-12-29T08:25:34;0.40;;;0.40;;
33138;SDS011;19501;50.948;5.316;2023-12-29T08:28:02;0.40;;;0.40;;
33138;SDS011;19501;50.948;5.316;2023-12-29T08:30:27;0.40;;;0.40;;
33138;SDS011;19501;50.948;5.316;2023-12-29T08:32:53;0.40;;;0.40;;
33138;SDS011;19501;50.948;5.316;2023-12-29T08:35:19;0.30;;;0.30;;
33138;SDS011;19501;50.948;5.316;2023-12-29T08:37:44;0.40;;;0.40;;
33138;SDS011;19501;50.948;5.316;2023-12-29T08:40:10;0.30;;;0.30;;
33138;SDS011;19501;50.948;5.316;2023-12-29T08:42:36;0.40;;;0.40;;
33138;SDS011;19501;50.948;5.316;2023-12-29T08:45:02;0.40;;;0.40;;
33138;SDS011;19501;50.948;5.316;2023-12-29T08:47:28;0.40;;;0.40;;
33138;SDS011;19501;50.948;5.316;2023-12-29T08:49:54;0.50;;;0.50;;
33138;SDS011;19501;50.948;5.316;2023-12-29T08:52:20;0.40;;;0.40;;
33138;SDS011;19501;50.948;5.316;2023-12-29T08:54:46;0.40;;;0.40;;
33138;SDS011;19501;50.948;5.316;2023-12-29T08:57:12;0.40;;;0.40;;
33138;SDS011;19501;50.948;5.316;2023-12-29T08:59:37;16.17;;;2.33;;
33138;SDS011;19501;50.948;5.316;2023-12-29T09:02:03;0.50;;;0.50;;
33138;SDS011;19501;50.948;5.316;2023-12-29T09:04:29;0.40;;;0.40;;
33138;SDS011;19501;50.948;5.316;2023-12-29T09:06:54;0.30;;;0.30;;
33138;SDS011;19501;50.948;5.316;2023-12-29T09:09:20;0.40;;;0.40;;
33138;SDS011;19501;50.948;5.316;2023-12-29T09:11:46;0.40;;;0.40;;
33138;SDS011;19501;50.948;5.316;2023-12-29T09:14:12;0.30;;;0.30;;
33138;SDS011;19501;50.948;5.316;2023-12-29T09:16:38;0.40;;;0.40;;
33138;SDS011;19501;50.948;5.316;2023-12-29T09:19:07;0.32;;;0.32;;
33138;SDS011;19501;50.948;5.316;2023-12-29T09:21:33;0.35;;;0.35;;
33138;SDS011;19501;50.948;5.316;2023-12-29T09:23:59;0.40;;;0.40;;
33138;SDS011;19501;50.948;5.316;2023-12-29T09:26:24;0.40;;;0.40;;
33138;SDS011;19501;50.948;5.316;2023-12-29T09:28:50;0.40;;;0.40;;
33138;SDS011;19501;50.948;5.316;2023-12-29T09:31:17;0.40;;;0.40;;
33138;SDS011;19501;50.948;5.316;2023-12-29T09:33:43;0.40;;;0.40;;
33138;SDS011;19501;50.948;5.316;2023-12-29T09:36:09;0.30;;;0.30;;
33138;SDS011;19501;50.948;5.316;2023-12-29T09:38:34;0.40;;;0.40;;
33138;SDS011;19501;50.948;5.316;2023-12-29T09:41:04;7.85;;;1.67;;
33138;SDS011;19501;50.948;5.316;2023-12-29T09:43:34;0.40;;;0.40;;
33138;SDS011;19501;50.948;5.316;2023-12-29T09:46:01;0.30;;;0.30;;
33138;SDS011;19501;50.948;5.316;2023-12-29T09:48:29;0.40;;;0.40;;
33138;SDS011;19501;50.948;5.316;2023-12-29T09:50:59;0.40;;;0.40;;
33138;SDS011;19501;50.948;5.316;2023-12-29T09:53:24;0.40;;;0.40;;
33138;SDS011;19501;50.948;5.316;2023-12-29T09:55:51;0.40;;;0.40;;
33138;SDS011;19501;50.948;5.316;2023-12-29T09:58:19;0.40;;;0.40;;
33138;SDS011;19501;50.948;5.316;2023-12-29T10:03:16;0.40;;;0.40;;
33138;SDS011;19501;50.948;5.316;2023-12-29T10:05:42;0.50;;;0.50;;
33138;SDS011;19501;50.948;5.316;2023-12-29T10:08:14;0.40;;;0.40;;
33138;SDS011;19501;50.948;5.316;2023-12-29T10:10:40;0.35;;;0.35;;
33138;SDS011;19501;50.948;5.316;2023-12-29T10:13:07;0.30;;;0.30;;
33138;SDS011;19501;50.948;5.316;2023-12-29T10:18:27;0.52;;;0.52;;
33138;SDS011;19501;50.948;5.316;2023-12-29T10:23:54;0.40;;;0.40;;
33138;SDS011;19501;50.948;5.316;2023-12-29T10:28:53;0.40;;;0.40;;
33138;SDS011;19501;50.948;5.316;2023-12-29T10:31:22;0.40;;;0.40;;
33138;SDS011;19501;50.948;5.316;2023-12-29T10:33:48;0.40;;;0.40;;
33138;SDS011;19501;50.948;5.316;2023-12-29T10:36:16;0.40;;;0.40;;
33138;SDS011;19501;50.948;5.316;2023-12-29T10:38:42;2.15;;;2.05;;
33138;SDS011;19501;50.948;5.316;2023-12-29T10:43:41;0.40;;;0.40;;
33138;SDS011;19501;50.948;5.316;2023-12-29T10:46:09;0.40;;;0.40;;
33138;SDS011;19501;50.948;5.316;2023-12-29T10:48:36;0.40;;;0.40;;
33138;SDS011;19501;50.948;5.316;2023-12-29T10:51:03;0.30;;;0.30;;
33138;SDS011;19501;50.948;5.316;2023-12-29T10:53:32;0.30;;;0.30;;
33138;SDS011;19501;50.948;5.316;2023-12-29T10:55:59;0.30;;;0.30;;
33138;SDS011;19501;50.948;5.316;2023-12-29T10:58:27;0.30;;;0.30;;
33138;SDS011;19501;50.948;5.316;2023-12-29T11:00:57;0.38;;;0.38;;
33138;SDS011;19501;50.948;5.316;2023-12-29T11:03:24;0.40;;;0.40;;
33138;SDS011;19501;50.948;5.316;2023-12-29T11:05:51;0.40;;;0.40;;
33138;SDS011;19501;50.948;5.316;2023-12-29T11:08:26;0.35;;;0.35;;
33138;SDS011;19501;50.948;5.316;2023-12-29T11:10:52;0.40;;;0.40;;
33138;SDS011;19501;50.948;5.316;2023-12-29T11:13:20;0.40;;;0.40;;
33138;SDS011;19501;50.948;5.316;2023-12-29T11:15:46;0.40;;;0.40;;
33138;SDS011;19501;50.948;5.316;2023-12-29T11:18:13;0.40;;;0.40;;
33138;SDS011;19501;50.948;5.316;2023-12-29T11:20:40;0.40;;;0.40;;
33138;SDS011;19501;50.948;5.316;2023-12-29T11:23:10;0.40;;;0.40;;
33138;SDS011;19501;50.948;5.316;2023-12-29T11:25:40;0.40;;;0.40;;
33138;SDS011;19501;50.948;5.316;2023-12-29T11:28:11;5.30;;;4.78;;
33138;SDS011;19501;50.948;5.316;2023-12-29T11:30:37;0.40;;;0.40;;
33138;SDS011;19501;50.948;5.316;2023-12-29T11:33:12;0.40;;;0.40;;
33138;SDS011;19501;50.948;5.316;2023-12-29T11:35:44;0.40;;;0.40;;
33138;SDS011;19501;50.948;5.316;2023-12-29T11:41:23;0.40;;;0.40;;
33138;SDS011;19501;50.948;5.316;2023-12-29T11:46:49;1.05;;;1.02;;
33138;SDS011;19501;50.948;5.316;2023-12-29T11:49:15;0.40;;;0.40;;
33138;SDS011;19501;50.948;5.316;2023-12-29T11:51:44;0.40;;;0.40;;
33138;SDS011;19501;50.948;5.316;2023-12-29T11:54:47;0.40;;;0.40;;
33138;SDS011;19501;50.948;5.316;2023-12-29T11:57:06;0.40;;;0.40;;
33138;SDS011;19501;50.948;5.316;2023-12-29T11:59:33;0.40;;;0.40;;
33138;SDS011;19501;50.948;5.316;2023-12-29T12:02:26;0.40;;;0.40;;
33138;SDS011;19501;50.948;5.316;2023-12-29T12:04:53;0.40;;;0.40;;
33138;SDS011;19501;50.948;5.316;2023-12-29T12:09:50;0.40;;;0.40;;
33138;SDS011;19501;50.948;5.316;2023-12-29T12:15:49;0.40;;;0.40;;
33138;SDS011;19501;50.948;5.316;2023-12-29T12:18:03;0.40;;;0.40;;
33138;SDS011;19501;50.948;5.316;2023-12-29T12:20:32;0.40;;;0.40;;
33138;SDS011;19501;50.948;5.316;2023-12-29T12:22:59;0.40;;;0.40;;
33138;SDS011;19501;50.948;5.316;2023-12-29T12:25:26;0.40;;;0.40;;
33138;SDS011;19501;50.948;5.316;2023-12-29T12:27:53;0.40;;;0.40;;
33138;SDS011;19501;50.948;5.316;2023-12-29T12:30:19;0.40;;;0.40;;
33138;SDS011;19501;50.948;5.316;2023-12-29T12:32:45;0.40;;;0.40;;
33138;SDS011;19501;50.948;5.316;2023-12-29T12:35:14;0.38;;;0.38;;
33138;SDS011;19501;50.948;5.316;2023-12-29T12:37:43;11.80;;;2.38;;
33138;SDS011;19501;50.948;5.316;2023-12-29T12:40:09;0.98;;;0.98;;
33138;SDS011;19501;50.948;5.316;2023-12-29T12:42:40;0.40;;;0.40;;
33138;SDS011;19501;50.948;5.316;2023-12-29T12:45:06;0.40;;;0.40;;
33138;SDS011;19501;50.948;5.316;2023-12-29T12:47:44;0.40;;;0.40;;
33138;SDS011;19501;50.948;5.316;2023-12-29T12:50:15;0.40;;;0.40;;
33138;SDS011;19501;50.948;5.316;2023-12-29T12:52:41;0.40;;;0.40;;
33138;SDS011;19501;50.948;5.316;2023-12-29T12:55:07;0.40;;;0.40;;
33138;SDS011;19501;50.948;5.316;2023-12-29T12:57:34;0.40;;;0.40;;
33138;SDS011;19501;50.948;5.316;2023-12-29T13:00:03;0.40;;;0.40;;
33138;SDS011;19501;50.948;5.316;2023-12-29T13:02:30;0.50;;;0.50;;
33138;SDS011;19501;50.948;5.316;2023-12-29T13:04:57;0.30;;;0.30;;
33138;SDS011;19501;50.948;5.316;2023-12-29T13:07:23;0.40;;;0.40;;
33138;SDS011;19501;50.948;5.316;2023-12-29T13:09:49;0.40;;;0.40;;
33138;SDS011;19501;50.948;5.316;2023-12-29T13:12:17;0.40;;;0.40;;
33138;SDS011;19501;50.948;5.316;2023-12-29T13:14:43;0.40;;;0.40;;
33138;SDS011;19501;50.948;5.316;2023-12-29T13:17:11;0.40;;;0.40;;
33138;SDS011;19501;50.948;5.316;2023-12-29T13:19:38;0.40;;;0.40;;
33138;SDS011;19501;50.948;5.316;2023-12-29T13:22:08;0.40;;;0.40;;
33138;SDS011;19501;50.948;5.316;2023-12-29T13:24:35;0.40;;;0.40;;
33138;SDS011;19501;50.948;5.316;2023-12-29T13:27:08;0.40;;;0.40;;
33138;SDS011;19501;50.948;5.316;2023-12-29T13:29:34;0.57;;;0.57;;
33138;SDS011;19501;50.948;5.316;2023-12-29T13:32:03;0.60;;;0.60;;
33138;SDS011;19501;50.948;5.316;2023-12-29T13:34:39;0.50;;;0.50;;
33138;SDS011;19501;50.948;5.316;2023-12-29T13:42:33;0.47;;;0.47;;
33138;SDS011;19501;50.948;5.316;2023-12-29T13:45:00;1.77;;;1.65;;
33138;SDS011;19501;50.948;5.316;2023-12-29T13:47:30;0.30;;;0.30;;
33138;SDS011;19501;50.948;5.316;2023-12-29T13:49:56;0.30;;;0.30;;
33138;SDS011;19501;50.948;5.316;2023-12-29T13:52:22;0.40;;;0.40;;
33138;SDS011;19501;50.948;5.316;2023-12-29T13:54:48;0.40;;;0.40;;
33138;SDS011;19501;50.948;5.316;2023-12-29T13:57:16;0.40;;;0.40;;
33138;SDS011;19501;50.948;5.316;2023-12-29T13:59:42;0.40;;;0.40;;
33138;SDS011;19501;50.948;5.316;2023-12-29T14:02:23;0.40;;;0.40;;
33138;SDS011;19501;50.948;5.316;2023-12-29T14:08:04;0.30;;;0.30;;
33138;SDS011;19501;50.948;5.316;2023-12-29T14:10:35;0.40;;;0.40;;
33138;SDS011;19501;50.948;5.316;2023-12-29T14:13:08;0.30;;;0.30;;
33138;SDS011;19501;50.948;5.316;2023-12-29T14:15:37;0.40;;;0.40;;
33138;SDS011;19501;50.948;5.316;2023-12-29T14:18:30;0.40;;;0.40;;
33138;SDS011;19501;50.948;5.316;2023-12-29T14:21:19;0.40;;;0.40;;
33138;SDS011;19501;50.948;5.316;2023-12-29T14:26:40;0.40;;;0.40;;
33138;SDS011;19501;50.948;5.316;2023-12-29T14:29:18;1.80;;;1.70;;
33138;SDS011;19501;50.948;5.316;2023-12-29T14:31:45;0.40;;;0.40;;
33138;SDS011;19501;50.948;5.316;2023-12-29T14:34:12;0.40;;;0.40;;
33138;SDS011;19501;50.948;5.316;2023-12-29T14:36:41;0.40;;;0.40;;
33138;SDS011;19501;50.948;5.316;2023-12-29T14:39:08;0.40;;;0.40;;
33138;SDS011;19501;50.948;5.316;2023-12-29T14:41:35;0.40;;;0.40;;
33138;SDS011;19501;50.948;5.316;2023-12-29T14:44:01;0.50;;;0.50;;
33138;SDS011;19501;50.948;5.316;2023-12-29T14:46:27;0.40;;;0.40;;
33138;SDS011;19501;50.948;5.316;2023-12-29T14:48:53;0.40;;;0.40;;
33138;SDS011;19501;50.948;5.316;2023-12-29T14:51:21;0.40;;;0.40;;
33138;SDS011;19501;50.948;5.316;2023-12-29T14:53:47;0.40;;;0.40;;
33138;SDS011;19501;50.948;5.316;2023-12-29T14:56:14;0.40;;;0.40;;
33138;SDS011;19501;50.948;5.316;2023-12-29T14:58:40;0.40;;;0.40;;
33138;SDS011;19501;50.948;5.316;2023-12-29T15:01:06;0.50;;;0.50;;
33138;SDS011;19501;50.948;5.316;2023-12-29T15:03:32;0.40;;;0.40;;
33138;SDS011;19501;50.948;5.316;2023-12-29T15:05:59;0.40;;;0.40;;
33138;SDS011;19501;50.948;5.316;2023-12-29T15:08:25;0.40;;;0.40;;
33138;SDS011;19501;50.948;5.316;2023-12-29T15:10:51;0.40;;;0.40;;
33138;SDS011;19501;50.948;5.316;2023-12-29T15:13:17;0.50;;;0.50;;
33138;SDS011;19501;50.948;5.316;2023-12-29T15:15:42;0.40;;;0.40;;
33138;SDS011;19501;50.948;5.316;2023-12-29T15:18:08;0.40;;;0.40;;
33138;SDS011;19501;50.948;5.316;2023-12-29T15:20:34;0.40;;;0.40;;
33138;SDS011;19501;50.948;5.316;2023-12-29T15:23:00;0.40;;;0.40;;